createdAt,value
2024-03-12T00:00:49.613Z,4.75
2024-03-12T00:03:18.649Z,4.50
2024-03-12T00:05:47.535Z,6.00
2024-03-12T00:08:16.763Z,5.00
2024-03-12T00:10:45.631Z,5.50
2024-03-12T00:13:14.490Z,6.00
2024-03-12T00:15:43.962Z,5.25
2024-03-12T00:18:13.270Z,5.75
2024-03-12T00:20:42.492Z,5.50
2024-03-12T00:23:11.467Z,6.00
2024-03-12T00:25:41.561Z,4.75
2024-03-12T00:28:10.985Z,7.75
2024-03-12T00:30:48.834Z,5.00
2024-03-12T00:33:17.836Z,5.25
2024-03-12T00:35:48.562Z,6.25
2024-03-12T00:38:20.045Z,5.00
2024-03-12T00:40:50.489Z,5.25
2024-03-12T00:43:20.336Z,5.50
2024-03-12T00:45:52.231Z,6.00
2024-03-12T00:48:21.206Z,6.75
2024-03-12T00:50:50.785Z,6.00
2024-03-12T00:53:19.819Z,6.50
2024-03-12T00:55:49.537Z,6.50
2024-03-12T00:58:22.714Z,5.00
2024-03-12T01:00:51.741Z,6.75
2024-03-12T01:03:20.584Z,4.50
2024-03-12T01:05:49.684Z,6.00
2024-03-12T01:08:18.688Z,6.00
2024-03-12T01:10:48.364Z,6.00
2024-03-12T01:13:17.900Z,6.00
2024-03-12T01:15:48.203Z,7.00
2024-03-12T01:18:20.994Z,5.00
2024-03-12T01:20:51.768Z,6.00
2024-03-12T01:23:20.694Z,6.25
2024-03-12T01:25:49.711Z,6.00
2024-03-12T01:28:18.537Z,7.75
2024-03-12T01:30:47.416Z,7.25
2024-03-12T01:33:16.333Z,5.75
2024-03-12T01:35:49.228Z,4.75
2024-03-12T01:38:18.019Z,7.00
2024-03-12T01:40:46.922Z,5.75
2024-03-12T01:43:15.772Z,5.75
2024-03-12T01:45:44.686Z,7.00
2024-03-12T01:48:13.998Z,7.00
2024-03-12T01:50:43.365Z,4.50
2024-03-12T01:53:13.177Z,6.00
2024-03-12T01:55:49.150Z,5.75
2024-03-12T01:58:18.848Z,6.00
2024-03-12T02:00:48.107Z,5.75
2024-03-12T02:03:20.893Z,8.00
2024-03-12T02:05:49.805Z,7.50
2024-03-12T02:08:19.041Z,7.00
2024-03-12T02:10:48.278Z,5.50
2024-03-12T02:13:17.373Z,5.25
2024-03-12T02:15:46.625Z,6.00
2024-03-12T02:18:17.127Z,6.25
2024-03-12T02:20:46.390Z,8.50
2024-03-12T02:23:15.479Z,5.75
2024-03-12T02:25:45.444Z,6.75
2024-03-12T02:28:14.370Z,8.00
2024-03-12T02:30:43.490Z,7.25
2024-03-12T02:33:12.432Z,7.25
2024-03-12T02:35:41.295Z,7.00
2024-03-12T02:38:11.102Z,7.25
2024-03-12T02:40:41.428Z,4.50
2024-03-12T02:43:10.348Z,7.00
2024-03-12T02:45:41.161Z,9.00
2024-03-12T02:48:13.479Z,5.00
2024-03-12T02:50:42.312Z,6.00
2024-03-12T02:53:11.126Z,7.00
2024-03-12T02:55:40.288Z,6.00
2024-03-12T02:58:09.789Z,7.50
2024-03-12T03:00:38.784Z,7.00
2024-03-12T03:03:07.923Z,7.25
2024-03-12T03:05:37.701Z,4.25
2024-03-12T03:08:06.706Z,7.50
2024-03-12T03:10:35.481Z,7.25
2024-03-12T03:13:04.368Z,7.50
2024-03-12T03:15:33.526Z,7.75
2024-03-12T03:18:03.842Z,6.00
2024-03-12T03:20:32.884Z,6.00
2024-03-12T03:23:01.690Z,7.50
2024-03-12T03:25:30.676Z,9.00
2024-03-12T03:28:00.036Z,6.25
2024-03-12T03:30:28.986Z,5.00
2024-03-12T03:32:58.013Z,8.25
2024-03-12T03:35:26.954Z,9.25
2024-03-12T03:37:55.988Z,9.25
2024-03-12T03:40:25.511Z,8.00
2024-03-12T03:42:58.220Z,7.75
2024-03-12T03:45:27.207Z,9.00
2024-03-12T03:47:56.242Z,8.00
2024-03-12T03:50:25.102Z,8.50
2024-03-12T03:52:55.197Z,9.00
2024-03-12T03:55:26.965Z,8.00
2024-03-12T03:57:56.018Z,8.75
2024-03-12T04:00:30.850Z,8.00
2024-03-12T04:02:59.993Z,9.00
2024-03-12T04:05:29.563Z,7.50
2024-03-12T04:07:58.515Z,7.00
2024-03-12T04:10:27.620Z,7.75
2024-03-12T04:12:59.063Z,7.00
2024-03-12T04:15:31.048Z,8.75
2024-03-12T04:18:00.551Z,8.00
2024-03-12T04:20:29.922Z,8.00
2024-03-12T04:22:58.846Z,7.25
2024-03-12T04:25:28.056Z,7.75
2024-03-12T04:27:58.052Z,8.00
2024-03-12T04:30:26.966Z,8.50
2024-03-12T04:32:55.965Z,9.00
2024-03-12T04:35:24.903Z,9.50
2024-03-12T04:37:53.693Z,12.00
2024-03-12T04:40:25.423Z,10.50
2024-03-12T04:42:55.880Z,7.75
2024-03-12T04:45:24.801Z,8.75
2024-03-12T04:47:54.318Z,9.25
2024-03-12T04:50:25.204Z,7.25
2024-03-12T04:52:54.084Z,11.00
2024-03-12T04:55:23.283Z,11.25
2024-03-12T04:57:52.227Z,8.50
2024-03-12T05:00:21.539Z,8.75
2024-03-12T05:02:53.885Z,7.00
2024-03-12T05:05:23.792Z,9.75
2024-03-12T05:07:53.350Z,8.25
2024-03-12T05:10:27.549Z,7.50
2024-03-12T05:12:57.445Z,8.00
2024-03-12T05:15:26.530Z,9.50
2024-03-12T05:17:55.500Z,10.00
2024-03-12T05:20:25.696Z,10.00
2024-03-12T05:22:56.011Z,9.25
2024-03-12T05:25:41.795Z,10.00
2024-03-12T05:28:12.126Z,8.25
2024-03-12T05:30:44.620Z,8.00
2024-03-12T05:33:17.043Z,10.25
2024-03-12T05:35:54.398Z,8.00
2024-03-12T05:38:36.228Z,6.75
2024-03-12T05:41:11.197Z,8.00
2024-03-12T05:43:58.593Z,8.00
2024-03-12T05:46:49.624Z,8.00
2024-03-12T05:49:18.685Z,6.75
2024-03-12T05:51:47.616Z,6.25
2024-03-12T05:54:16.739Z,7.00
2024-03-12T05:56:45.496Z,6.75
2024-03-12T05:59:14.479Z,8.00
2024-03-12T06:01:43.683Z,8.00
2024-03-12T06:04:12.717Z,8.50
2024-03-12T06:06:41.850Z,8.75
2024-03-12T06:09:12.021Z,8.25
2024-03-12T06:11:42.182Z,8.50
2024-03-12T06:14:11.496Z,9.00
2024-03-12T06:16:40.430Z,8.25
2024-03-12T06:19:09.589Z,8.25
2024-03-12T06:21:38.538Z,8.00
2024-03-12T06:24:08.479Z,7.00
2024-03-12T06:26:38.514Z,8.50
2024-03-12T06:29:08.634Z,9.00
2024-03-12T06:31:37.670Z,10.25
2024-03-12T06:34:06.710Z,10.25
2024-03-12T06:36:35.709Z,12.00
2024-03-12T06:39:08.064Z,10.50
2024-03-12T06:41:37.322Z,9.75
2024-03-12T06:44:10.205Z,9.25
2024-03-12T06:46:40.288Z,9.75
2024-03-12T06:49:11.639Z,9.75
2024-03-12T06:51:40.756Z,10.00
2024-03-12T06:54:13.786Z,11.00
2024-03-12T06:56:46.103Z,13.50
2024-03-12T06:59:18.229Z,13.25
2024-03-12T07:01:48.046Z,12.25
2024-03-12T07:04:17.257Z,13.50
2024-03-12T07:06:47.411Z,9.50
2024-03-12T07:09:28.803Z,11.25
2024-03-12T07:12:00.835Z,12.00
2024-03-12T07:14:34.901Z,12.75
2024-03-12T07:17:03.829Z,14.75
2024-03-12T07:19:33.345Z,13.50
2024-03-12T07:22:02.489Z,12.75
2024-03-12T07:24:31.898Z,11.00
2024-03-12T07:27:01.709Z,15.75
2024-03-12T07:29:30.850Z,13.00
2024-03-12T07:31:59.619Z,11.25
2024-03-12T07:34:28.562Z,13.25
2024-03-12T07:36:57.445Z,12.25
2024-03-12T07:39:42.299Z,13.75
2024-03-12T07:42:21.133Z,13.50
2024-03-12T07:44:50.456Z,15.25
2024-03-12T07:47:20.251Z,13.75
2024-03-12T07:49:49.420Z,12.25
2024-03-12T07:52:18.567Z,12.25
2024-03-12T07:54:48.070Z,13.00
2024-03-12T07:57:21.601Z,14.00
2024-03-12T07:59:50.485Z,14.00
2024-03-12T08:02:23.855Z,12.50
2024-03-12T08:04:52.683Z,13.25
2024-03-12T08:07:21.753Z,14.25
2024-03-12T08:09:51.311Z,15.75
2024-03-12T08:12:21.751Z,14.50
2024-03-12T08:14:53.394Z,15.50
2024-03-12T08:17:22.287Z,16.25
2024-03-12T08:19:51.497Z,15.00
2024-03-12T08:22:21.650Z,14.25
2024-03-12T08:24:52.784Z,11.75
2024-03-12T08:27:21.632Z,15.25
2024-03-12T08:29:50.538Z,17.00
2024-03-12T08:32:19.586Z,18.50
2024-03-12T08:34:48.387Z,13.50
2024-03-12T08:37:17.245Z,17.50
2024-03-12T08:39:46.390Z,17.50
2024-03-12T08:42:15.866Z,18.00
2024-03-12T08:44:45.685Z,15.25
2024-03-12T08:47:15.060Z,12.25
2024-03-12T08:49:43.876Z,19.00
2024-03-12T08:52:12.673Z,17.75
2024-03-12T08:54:41.617Z,16.75
2024-03-12T08:57:10.577Z,10.75
2024-03-12T08:59:39.859Z,17.25
2024-03-12T09:02:09.049Z,17.75
2024-03-12T09:04:38.062Z,17.25
2024-03-12T09:07:07.253Z,17.75
2024-03-12T09:09:36.991Z,18.75
2024-03-12T09:12:05.917Z,19.00
2024-03-12T09:14:34.832Z,19.75
2024-03-12T09:17:07.563Z,19.00
2024-03-12T09:19:37.818Z,16.75
2024-03-12T09:22:06.716Z,17.75
2024-03-12T09:24:36.768Z,15.25
2024-03-12T09:27:06.798Z,16.50
2024-03-12T09:29:35.737Z,17.75
2024-03-12T09:32:05.969Z,17.50
2024-03-12T09:34:37.908Z,18.00
2024-03-12T09:37:08.334Z,16.50
2024-03-12T09:39:41.544Z,13.75
2024-03-12T09:42:11.357Z,17.75
2024-03-12T09:44:40.637Z,16.50
2024-03-12T09:47:11.416Z,17.25
2024-03-12T09:49:42.723Z,18.00
2024-03-12T09:52:11.789Z,19.50
2024-03-12T09:54:41.485Z,19.50
2024-03-12T09:57:14.772Z,16.75
2024-03-12T09:59:47.331Z,17.75
2024-03-12T10:02:17.282Z,17.50
2024-03-12T10:04:46.562Z,19.00
2024-03-12T10:07:16.388Z,16.75
2024-03-12T10:09:45.725Z,16.25
2024-03-12T10:12:14.610Z,15.25
2024-03-12T10:14:47.145Z,15.75
2024-03-12T10:17:17.642Z,16.25
2024-03-12T10:19:53.500Z,15.25
2024-03-12T10:22:23.662Z,14.00
2024-03-12T10:24:52.632Z,13.75
2024-03-12T10:27:23.038Z,18.00
2024-03-12T10:29:51.944Z,17.00
2024-03-12T10:32:22.503Z,18.00
2024-03-12T10:34:52.125Z,17.25
2024-03-12T10:37:37.707Z,19.75
2024-03-12T10:40:25.080Z,17.50
2024-03-12T10:43:08.571Z,15.75
2024-03-12T10:45:38.465Z,16.75
2024-03-12T10:48:12.445Z,16.25
2024-03-12T10:50:43.828Z,18.50
2024-03-12T10:53:17.185Z,16.00
2024-03-12T10:55:46.663Z,17.00
2024-03-12T10:58:17.945Z,18.25
2024-03-12T11:00:47.933Z,18.75
2024-03-12T11:03:21.406Z,16.00
2024-03-12T11:05:50.456Z,16.50
2024-03-12T11:08:20.467Z,16.50
2024-03-12T11:10:51.517Z,18.00
2024-03-12T11:13:22.899Z,18.25
2024-03-12T11:15:52.331Z,17.00
2024-03-12T11:18:37.702Z,15.75
2024-03-12T11:21:07.291Z,17.00
2024-03-12T11:23:38.934Z,16.50
2024-03-12T11:26:09.453Z,14.75
2024-03-12T11:28:52.255Z,19.25
2024-03-12T11:31:21.804Z,20.75
2024-03-12T11:33:56.621Z,19.75
2024-03-12T11:36:34.834Z,20.75
2024-03-12T11:39:17.457Z,20.25
2024-03-12T11:42:08.154Z,20.00
2024-03-12T11:44:57.018Z,19.25
2024-03-12T11:47:41.465Z,18.75
2024-03-12T11:50:33.580Z,18.75
2024-03-12T11:53:21.950Z,19.25
2024-03-12T11:56:22.722Z,20.00
2024-03-12T11:58:59.827Z,20.50
2024-03-12T12:01:36.927Z,16.50
2024-03-12T12:04:12.192Z,19.25
2024-03-12T12:06:42.337Z,21.00
2024-03-12T12:09:12.883Z,17.75
2024-03-12T12:11:42.817Z,19.50
2024-03-12T12:14:12.018Z,19.50
2024-03-12T12:16:41.817Z,20.25
2024-03-12T12:19:16.781Z,19.75
2024-03-12T12:21:52.215Z,18.75
2024-03-12T12:24:24.871Z,20.00
2024-03-12T12:26:58.193Z,18.25
2024-03-12T12:29:31.188Z,18.75
2024-03-12T12:32:00.863Z,18.50
2024-03-12T12:34:30.747Z,18.50
2024-03-12T12:37:01.766Z,17.50
2024-03-12T12:39:43.995Z,17.00
2024-03-12T12:42:21.840Z,19.25
2024-03-12T12:44:56.364Z,19.50
2024-03-12T12:47:25.536Z,18.50
2024-03-12T12:49:57.971Z,18.00
2024-03-12T12:52:26.824Z,19.25
2024-03-12T12:55:02.986Z,19.00
2024-03-12T12:57:37.095Z,19.25
2024-03-12T13:00:17.767Z,20.00
2024-03-12T13:02:50.265Z,18.75
2024-03-12T13:05:23.886Z,18.75
2024-03-12T13:07:52.665Z,19.75
2024-03-12T13:10:21.685Z,19.25
2024-03-12T13:12:51.068Z,19.75
2024-03-12T13:15:27.691Z,18.75
2024-03-12T13:17:56.915Z,19.25
2024-03-12T13:20:26.797Z,20.00
2024-03-12T13:22:57.060Z,18.75
2024-03-12T13:25:26.437Z,19.25
2024-03-12T13:27:55.843Z,19.50
2024-03-12T13:30:24.787Z,20.75
2024-03-12T13:32:53.789Z,20.25
2024-03-12T13:35:22.741Z,21.25
2024-03-12T13:37:51.583Z,20.25
2024-03-12T13:40:21.485Z,21.00
2024-03-12T13:42:50.585Z,21.50
2024-03-12T13:45:20.487Z,24.25
2024-03-12T13:47:49.597Z,22.25
2024-03-12T13:50:18.450Z,27.75
2024-03-12T13:52:49.629Z,21.25
2024-03-12T13:55:18.469Z,22.25
2024-03-12T13:57:48.410Z,21.75
2024-03-12T14:00:18.691Z,23.00
2024-03-12T14:02:47.602Z,21.00
2024-03-12T14:05:18.767Z,21.50
2024-03-12T14:07:48.597Z,20.75
2024-03-12T14:10:17.581Z,22.25
2024-03-12T14:12:46.510Z,22.50
2024-03-12T14:15:15.492Z,20.50
2024-03-12T14:17:44.412Z,21.75
2024-03-12T14:20:16.817Z,22.25
2024-03-12T14:22:48.491Z,23.00
2024-03-12T14:25:17.534Z,21.25
2024-03-12T14:27:46.781Z,23.25
2024-03-12T14:30:16.847Z,22.75
2024-03-12T14:32:45.766Z,22.75
2024-03-12T14:35:14.807Z,23.00
2024-03-12T14:37:44.502Z,22.75
2024-03-12T14:40:13.919Z,21.75
2024-03-12T14:42:44.052Z,22.50
2024-03-12T14:45:14.181Z,23.50
2024-03-12T14:47:43.417Z,21.00
2024-03-12T14:50:13.591Z,22.75
2024-03-12T14:52:43.413Z,21.75
2024-03-12T14:55:12.554Z,20.75
2024-03-12T14:57:41.748Z,22.00
2024-03-12T15:00:18.584Z,22.25
2024-03-12T15:02:48.471Z,23.25
2024-03-12T15:05:17.322Z,23.50
2024-03-12T15:07:46.655Z,24.00
2024-03-12T15:10:15.946Z,23.25
2024-03-12T15:12:45.922Z,22.25
2024-03-12T15:15:17.235Z,24.25
2024-03-12T15:17:47.320Z,22.25
2024-03-12T15:20:18.635Z,21.75
2024-03-12T15:22:51.328Z,20.75
2024-03-12T15:25:25.015Z,22.25
2024-03-12T15:27:55.154Z,21.25
2024-03-12T15:30:24.116Z,21.25
2024-03-12T15:32:53.587Z,21.00
2024-03-12T15:35:22.616Z,23.75
2024-03-12T15:37:51.506Z,22.75
2024-03-12T15:40:22.014Z,23.75
2024-03-12T15:42:50.883Z,22.50
2024-03-12T15:45:21.392Z,24.75
2024-03-12T15:47:50.313Z,23.25
2024-03-12T15:50:19.182Z,23.50
2024-03-12T15:52:48.686Z,23.00
2024-03-12T15:55:17.744Z,24.00
2024-03-12T15:57:48.081Z,25.00
2024-03-12T16:00:21.421Z,23.25
2024-03-12T16:02:51.704Z,22.75
2024-03-12T16:05:21.271Z,23.75
2024-03-12T16:07:51.982Z,23.00
2024-03-12T16:10:23.008Z,22.75
2024-03-12T16:12:51.844Z,22.50
2024-03-12T16:15:20.774Z,22.75
2024-03-12T16:17:51.107Z,22.00
2024-03-12T16:20:22.625Z,24.00
2024-03-12T16:22:51.571Z,23.50
2024-03-12T16:25:20.528Z,25.00
2024-03-12T16:27:49.545Z,23.50
2024-03-12T16:30:18.532Z,23.50
2024-03-12T16:32:48.016Z,23.50
2024-03-12T16:35:17.170Z,22.00
2024-03-12T16:37:46.245Z,25.50
2024-03-12T16:40:15.297Z,22.50
2024-03-12T16:42:46.818Z,21.00
2024-03-12T16:45:15.688Z,26.00
2024-03-12T16:47:44.521Z,24.50
2024-03-12T16:50:17.710Z,24.75
2024-03-12T16:52:48.590Z,23.75
2024-03-12T16:55:17.899Z,24.00
2024-03-12T16:57:47.155Z,23.75
2024-03-12T17:00:16.729Z,23.00
2024-03-12T17:02:46.184Z,24.75
2024-03-12T17:05:21.240Z,24.00
2024-03-12T17:07:52.721Z,23.50
2024-03-12T17:10:24.278Z,23.75
2024-03-12T17:12:53.964Z,24.00
2024-03-12T17:15:26.624Z,23.00
2024-03-12T17:17:58.026Z,22.75
2024-03-12T17:20:29.381Z,24.25
2024-03-12T17:23:00.327Z,22.75
2024-03-12T17:25:29.467Z,23.00
2024-03-12T17:27:59.545Z,22.25
2024-03-12T17:30:29.105Z,24.00
2024-03-12T17:32:58.202Z,23.25
2024-03-12T17:35:27.494Z,23.00
2024-03-12T17:38:03.356Z,23.00
2024-03-12T17:40:34.836Z,25.00
2024-03-12T17:43:04.112Z,24.25
2024-03-12T17:45:33.971Z,22.75
2024-03-12T17:48:06.784Z,23.25
2024-03-12T17:50:36.001Z,22.00
2024-03-12T17:53:08.457Z,23.50
2024-03-12T17:55:38.378Z,23.25
2024-03-12T17:58:08.363Z,24.75
2024-03-12T18:00:37.898Z,23.25
2024-03-12T18:03:07.222Z,21.75
2024-03-12T18:05:36.272Z,23.25
2024-03-12T18:08:09.606Z,23.75
2024-03-12T18:10:39.999Z,22.75
2024-03-12T18:13:10.563Z,23.75
2024-03-12T18:15:39.776Z,23.00
2024-03-12T18:18:09.411Z,25.75
2024-03-12T18:20:43.158Z,23.00
2024-03-12T18:23:15.648Z,23.75
2024-03-12T18:25:44.373Z,22.00
2024-03-12T18:28:13.251Z,23.75
2024-03-12T18:30:42.989Z,25.50
2024-03-12T18:33:13.150Z,23.50
2024-03-12T18:35:44.061Z,23.25
2024-03-12T18:38:12.795Z,23.25
2024-03-12T18:40:41.906Z,22.75
2024-03-12T18:43:10.901Z,23.50
2024-03-12T18:45:42.029Z,23.00
2024-03-12T18:48:13.585Z,23.50
2024-03-12T18:50:42.927Z,24.50
2024-03-12T18:53:11.924Z,24.25
2024-03-12T18:55:40.992Z,21.00
2024-03-12T18:58:11.754Z,24.00
2024-03-12T19:00:42.419Z,23.50
2024-03-12T19:03:18.612Z,25.25
2024-03-12T19:05:53.229Z,22.75
2024-03-12T19:08:22.480Z,25.00
2024-03-12T19:10:51.868Z,24.00
2024-03-12T19:13:23.036Z,23.75
2024-03-12T19:15:52.162Z,23.25
2024-03-12T19:18:22.644Z,24.50
2024-03-12T19:20:53.834Z,23.50
2024-03-12T19:23:24.061Z,24.00
2024-03-12T19:25:52.927Z,22.00
2024-03-12T19:28:22.026Z,24.00
2024-03-12T19:30:52.610Z,22.75
2024-03-12T19:33:21.683Z,24.00
2024-03-12T19:35:52.861Z,23.75
2024-03-12T19:38:22.328Z,23.75
2024-03-12T19:40:53.357Z,25.75
2024-03-12T19:43:22.777Z,21.75
2024-03-12T19:45:53.450Z,22.75
2024-03-12T19:48:23.170Z,23.00
2024-03-12T19:50:52.346Z,24.25
2024-03-12T19:53:21.886Z,23.50
2024-03-12T19:55:53.238Z,24.25
2024-03-12T19:58:22.508Z,23.25
2024-03-12T20:00:53.878Z,25.50
2024-03-12T20:03:25.293Z,24.75
2024-03-12T20:05:57.389Z,24.75
2024-03-12T20:08:27.816Z,24.00
2024-03-12T20:10:59.951Z,24.50
2024-03-12T20:13:28.869Z,23.00
2024-03-12T20:15:57.818Z,24.25
2024-03-12T20:18:30.600Z,24.75
2024-03-12T20:20:59.505Z,22.75
2024-03-12T20:23:28.547Z,25.00
2024-03-12T20:26:00.365Z,24.00
2024-03-12T20:28:29.877Z,22.50
2024-03-12T20:31:00.255Z,23.00
2024-03-12T20:33:29.807Z,24.25
2024-03-12T20:36:01.628Z,24.25
2024-03-12T20:38:31.151Z,23.50
2024-03-12T20:41:00.050Z,25.00
2024-03-12T20:43:29.788Z,23.50
2024-03-12T20:45:58.653Z,25.50
2024-03-12T20:48:27.633Z,23.00
2024-03-12T20:50:56.605Z,23.25
2024-03-12T20:53:25.336Z,22.75
2024-03-12T20:55:54.137Z,25.25
2024-03-12T20:58:23.011Z,23.75
2024-03-12T21:00:52.034Z,25.50
2024-03-12T21:03:21.284Z,24.50
2024-03-12T21:05:50.938Z,25.50
2024-03-12T21:08:19.794Z,24.25
2024-03-12T21:10:48.897Z,24.50
2024-03-12T21:13:19.493Z,24.75
2024-03-12T21:15:48.425Z,24.00
2024-03-12T21:18:17.342Z,24.50
2024-03-12T21:20:46.073Z,23.00
2024-03-12T21:23:14.916Z,22.50
2024-03-12T21:25:43.924Z,23.75
2024-03-12T21:28:13.132Z,23.75
2024-03-12T21:30:43.498Z,25.25
2024-03-12T21:33:12.866Z,25.50
2024-03-12T21:35:43.124Z,23.00
2024-03-12T21:38:13.222Z,23.00
2024-03-12T21:40:41.947Z,24.25
2024-03-12T21:43:11.040Z,24.25
2024-03-12T21:45:39.998Z,24.50
2024-03-12T21:48:09.798Z,23.00
2024-03-12T21:50:38.606Z,23.25
2024-03-12T21:53:09.915Z,25.50
2024-03-12T21:55:41.320Z,25.50
2024-03-12T21:58:11.380Z,25.50
2024-03-12T22:00:40.473Z,25.00
2024-03-12T22:03:09.729Z,24.75
2024-03-12T22:05:38.703Z,24.00
2024-03-12T22:08:08.059Z,23.00
2024-03-12T22:10:37.933Z,22.25
2024-03-12T22:13:09.346Z,25.50
2024-03-12T22:15:39.866Z,25.00
2024-03-12T22:18:09.365Z,25.00
2024-03-12T22:20:38.142Z,25.00
2024-03-12T22:23:07.687Z,24.00
2024-03-12T22:25:37.458Z,25.00
2024-03-12T22:28:06.572Z,24.75
2024-03-12T22:30:35.885Z,25.00
2024-03-12T22:33:05.569Z,24.50
2024-03-12T22:35:34.602Z,25.25
2024-03-12T22:38:05.474Z,24.00
2024-03-12T22:40:36.964Z,23.50
2024-03-12T22:43:06.219Z,23.25
2024-03-12T22:45:36.222Z,25.25
2024-03-12T22:48:12.493Z,25.50
2024-03-12T22:50:42.478Z,24.75
2024-03-12T22:53:15.108Z,23.75
2024-03-12T22:55:45.051Z,23.75
2024-03-12T22:58:14.403Z,25.75
2024-03-12T23:00:44.006Z,23.00
2024-03-12T23:03:15.040Z,24.25
2024-03-12T23:05:44.570Z,25.75
2024-03-12T23:08:17.174Z,25.25
2024-03-12T23:10:46.407Z,25.00
2024-03-12T23:13:18.157Z,26.00
2024-03-12T23:15:48.010Z,26.00
2024-03-12T23:18:17.906Z,24.25
2024-03-12T23:20:48.468Z,25.50
2024-03-12T23:23:18.604Z,26.00
2024-03-12T23:25:47.403Z,25.25
2024-03-12T23:28:16.297Z,23.75
2024-03-12T23:30:45.071Z,23.00
2024-03-12T23:33:14.388Z,26.00
2024-03-12T23:35:44.195Z,26.25
2024-03-12T23:38:13.594Z,26.50
2024-03-12T23:40:43.205Z,24.50
2024-03-12T23:43:13.047Z,26.25
2024-03-12T23:45:42.041Z,25.75
2024-03-12T23:48:11.308Z,27.00
2024-03-12T23:50:41.003Z,26.75
2024-03-12T23:53:09.794Z,26.75
2024-03-12T23:55:41.803Z,27.00
2024-03-12T23:58:12.044Z,28.00
